createdAt,value
2023-03-04T00:00:30.933Z,1.79
2023-03-04T00:02:57.851Z,1.67
2023-03-04T00:05:24.870Z,1.79
2023-03-04T00:07:51.816Z,1.57
2023-03-04T00:10:18.827Z,1.45
2023-03-04T00:12:45.806Z,1.45
2023-03-04T00:15:12.698Z,1.41
2023-03-04T00:17:39.613Z,1.29
2023-03-04T00:20:07.630Z,1.29
2023-03-04T00:22:34.473Z,1.41
2023-03-04T00:25:01.533Z,1.34
2023-03-04T00:27:28.584Z,1.36
2023-03-04T00:29:56.610Z,1.14
2023-03-04T00:32:23.614Z,1.29
2023-03-04T00:34:50.565Z,1.25
2023-03-04T00:37:17.550Z,1.38
2023-03-04T00:39:44.570Z,1.34
2023-03-04T00:42:11.516Z,1.27
2023-03-04T00:44:38.420Z,1.42
2023-03-04T00:47:05.358Z,1.35
2023-03-04T00:49:32.414Z,1.30
2023-03-04T00:51:59.335Z,1.35
2023-03-04T00:54:26.277Z,1.36
2023-03-04T00:56:53.184Z,1.48
2023-03-04T00:59:20.153Z,1.43
2023-03-04T01:01:47.075Z,1.34
2023-03-04T01:04:13.971Z,1.29
2023-03-04T01:06:41.075Z,1.19
2023-03-04T01:09:08.485Z,1.18
2023-03-04T01:11:35.344Z,1.06
2023-03-04T01:14:03.452Z,0.91
2023-03-04T01:16:30.419Z,0.99
2023-03-04T01:18:57.422Z,0.91
2023-03-04T01:21:24.341Z,0.79
2023-03-04T01:23:51.320Z,0.77
2023-03-04T01:26:18.193Z,0.71
2023-03-04T01:28:45.087Z,0.61
2023-03-04T01:31:12.092Z,0.71
2023-03-04T01:33:39.112Z,0.78
2023-03-04T01:36:06.420Z,0.93
2023-03-04T01:38:33.319Z,0.79
2023-03-04T01:41:00.394Z,0.73
2023-03-04T01:43:30.521Z,0.81
2023-03-04T01:45:58.814Z,0.65
2023-03-04T01:48:36.539Z,0.57
2023-03-04T01:51:12.443Z,0.75
2023-03-04T01:53:39.530Z,0.72
2023-03-04T01:56:16.957Z,0.69
2023-03-04T01:58:43.989Z,0.49
2023-03-04T02:01:14.639Z,0.68
2023-03-04T02:03:41.635Z,0.78
2023-03-04T02:06:08.714Z,0.65
2023-03-04T02:08:35.985Z,0.83
2023-03-04T02:11:02.929Z,0.64
2023-03-04T02:13:29.893Z,0.46
2023-03-04T02:15:56.808Z,0.32
2023-03-04T02:18:24.806Z,0.40
2023-03-04T02:21:07.645Z,0.28
2023-03-04T02:24:17.744Z,0.15
2023-03-04T02:26:46.867Z,0.16
2023-03-04T02:29:16.901Z,0.22
2023-03-04T02:31:47.777Z,0.18
2023-03-04T02:34:24.888Z,0.22
2023-03-04T02:36:54.007Z,0.14
2023-03-04T02:39:36.349Z,0.25
2023-03-04T02:42:04.433Z,0.19
2023-03-04T02:44:35.231Z,0.21
2023-03-04T02:47:04.373Z,0.27
2023-03-04T02:49:33.700Z,0.26
2023-03-04T02:52:09.095Z,0.33
2023-03-04T02:54:38.051Z,0.19
2023-03-04T02:57:09.137Z,0.13
2023-03-04T02:59:38.474Z,0.12
2023-03-04T03:02:06.726Z,0.21
2023-03-04T03:04:35.116Z,0.35
2023-03-04T03:07:02.148Z,0.11
2023-03-04T03:09:29.289Z,0.19
2023-03-04T03:11:56.253Z,0.19
2023-03-04T03:14:23.181Z,0.29
2023-03-04T03:16:50.117Z,0.44
2023-03-04T03:19:17.157Z,0.36
2023-03-04T03:21:44.026Z,0.35
2023-03-04T03:24:10.970Z,0.13
2023-03-04T03:26:39.907Z,-0.09
2023-03-04T03:29:06.802Z,-0.09
2023-03-04T03:31:33.722Z,0.09
2023-03-04T03:34:00.704Z,-0.16
2023-03-04T03:36:27.746Z,-0.02
2023-03-04T03:38:54.826Z,0.04
2023-03-04T03:41:21.709Z,0.30
2023-03-04T03:43:48.712Z,-0.05
2023-03-04T03:46:15.628Z,-0.08
2023-03-04T03:48:42.505Z,0.05
2023-03-04T03:51:09.441Z,0.04
2023-03-04T03:53:36.366Z,-0.05
2023-03-04T03:56:03.513Z,0.01
2023-03-04T03:58:30.579Z,-0.19
2023-03-04T04:00:58.515Z,-0.28
2023-03-04T04:03:26.057Z,-0.36
2023-03-04T04:05:53.181Z,-0.31
2023-03-04T04:08:20.174Z,-0.41
2023-03-04T04:10:47.086Z,-0.39
2023-03-04T04:13:14.181Z,-0.38
2023-03-04T04:15:41.141Z,-0.37
2023-03-04T04:18:08.622Z,-0.44
2023-03-04T04:20:36.036Z,-0.26
2023-03-04T04:23:04.115Z,-0.52
2023-03-04T04:25:31.256Z,-0.57
2023-03-04T04:27:58.170Z,-0.40
2023-03-04T04:30:25.503Z,-0.47
2023-03-04T04:32:52.441Z,-0.53
2023-03-04T04:35:19.661Z,-0.56
2023-03-04T04:37:47.070Z,-0.72
2023-03-04T04:40:14.217Z,-0.77
2023-03-04T04:42:41.323Z,-0.72
2023-03-04T04:45:09.127Z,-0.68
2023-03-04T04:47:36.181Z,-0.64
2023-03-04T04:50:04.025Z,-0.65
2023-03-04T04:52:31.194Z,-0.69
2023-03-04T04:54:58.336Z,-0.70
2023-03-04T04:57:25.545Z,-0.72
2023-03-04T04:59:52.509Z,-0.71
2023-03-04T05:02:19.388Z,-0.59
2023-03-04T05:04:46.604Z,-0.47
2023-03-04T05:07:13.547Z,-0.67
2023-03-04T05:09:40.447Z,-0.79
2023-03-04T05:12:07.514Z,-0.81
2023-03-04T05:14:34.460Z,-0.81
2023-03-04T05:17:01.401Z,-1.04
2023-03-04T05:19:28.410Z,-1.15
2023-03-04T05:21:55.345Z,-1.14
2023-03-04T05:24:22.335Z,-1.26
2023-03-04T05:26:49.257Z,-1.37
2023-03-04T05:29:16.129Z,-1.14
2023-03-04T05:31:42.991Z,-1.30
2023-03-04T05:34:09.873Z,-1.30
2023-03-04T05:36:36.933Z,-1.41
2023-03-04T05:39:03.986Z,-1.28
2023-03-04T05:41:30.923Z,-1.14
2023-03-04T05:43:57.888Z,-0.97
2023-03-04T05:46:25.658Z,-0.82
2023-03-04T05:48:54.505Z,-1.06
2023-03-04T05:51:22.712Z,-1.21
2023-03-04T05:53:49.969Z,-1.24
2023-03-04T05:56:19.814Z,-1.32
2023-03-04T05:58:50.299Z,-0.94
2023-03-04T06:01:18.436Z,-0.95
2023-03-04T06:03:45.396Z,-1.10
2023-03-04T06:06:12.394Z,-1.23
2023-03-04T06:08:39.519Z,-1.15
2023-03-04T06:11:07.094Z,-1.12
2023-03-04T06:13:34.770Z,-1.00
2023-03-04T06:16:02.083Z,-1.13
2023-03-04T06:18:29.493Z,-0.93
2023-03-04T06:21:02.215Z,-0.90
2023-03-04T06:23:30.856Z,-0.75
2023-03-04T06:26:00.129Z,-0.63
2023-03-04T06:28:28.208Z,-0.81
2023-03-04T06:30:56.854Z,-0.70
2023-03-04T06:33:24.400Z,-0.60
2023-03-04T06:35:55.780Z,-0.41
2023-03-04T06:38:24.034Z,-0.46
2023-03-04T06:40:51.124Z,-0.36
2023-03-04T06:43:18.720Z,-0.30
2023-03-04T06:45:45.661Z,-0.05
2023-03-04T06:48:13.138Z,0.05
2023-03-04T06:50:41.056Z,0.16
2023-03-04T06:53:07.955Z,-0.17
2023-03-04T06:55:34.881Z,-0.20
2023-03-04T06:58:01.889Z,0.06
2023-03-04T07:00:28.873Z,0.07
2023-03-04T07:02:55.792Z,0.25
2023-03-04T07:05:22.672Z,0.30
2023-03-04T07:07:50.544Z,0.32
2023-03-04T07:10:20.407Z,0.50
2023-03-04T07:12:47.660Z,0.69
2023-03-04T07:15:14.581Z,0.70
2023-03-04T07:17:41.602Z,0.66
2023-03-04T07:20:09.675Z,0.70
2023-03-04T07:22:36.924Z,0.76
2023-03-04T07:25:05.685Z,0.78
2023-03-04T07:27:32.553Z,0.92
2023-03-04T07:29:59.623Z,0.89
2023-03-04T07:32:26.973Z,1.02
2023-03-04T07:34:55.329Z,1.18
2023-03-04T07:37:22.458Z,1.27
2023-03-04T07:39:49.505Z,1.20
2023-03-04T07:42:16.541Z,1.37
2023-03-04T07:44:43.468Z,1.47
2023-03-04T07:47:10.391Z,1.40
2023-03-04T07:49:37.379Z,1.32
2023-03-04T07:52:06.027Z,1.49
2023-03-04T07:54:33.349Z,1.63
2023-03-04T07:57:00.374Z,1.70
2023-03-04T07:59:27.382Z,2.01
2023-03-04T08:01:54.341Z,1.98
2023-03-04T08:04:21.410Z,2.09
2023-03-04T08:06:48.934Z,2.06
2023-03-04T08:09:15.859Z,2.07
2023-03-04T08:11:42.866Z,2.19
2023-03-04T08:14:12.777Z,2.29
2023-03-04T08:16:40.513Z,2.53
2023-03-04T08:19:08.217Z,2.41
2023-03-04T08:21:35.862Z,2.48
2023-03-04T08:24:08.458Z,2.67
2023-03-04T08:26:44.573Z,2.80
2023-03-04T08:29:21.134Z,2.78
2023-03-04T08:31:51.435Z,2.88
2023-03-04T08:34:20.791Z,3.09
2023-03-04T08:36:48.322Z,3.39
2023-03-04T08:39:18.219Z,3.45
2023-03-04T08:41:46.540Z,3.53
2023-03-04T08:44:13.953Z,3.72
2023-03-04T08:46:44.267Z,3.91
2023-03-04T08:49:12.951Z,3.55
2023-03-04T08:51:39.926Z,3.43
2023-03-04T08:54:07.188Z,3.70
2023-03-04T08:56:34.136Z,3.88
2023-03-04T08:59:01.067Z,4.04
2023-03-04T09:01:28.271Z,4.10
2023-03-04T09:03:55.605Z,4.08
2023-03-04T09:06:22.562Z,4.25
2023-03-04T09:08:49.526Z,4.56
2023-03-04T09:11:17.031Z,4.58
2023-03-04T09:13:44.015Z,4.76
2023-03-04T09:16:15.489Z,4.61
2023-03-04T09:18:43.261Z,4.67
2023-03-04T09:21:10.781Z,4.56
2023-03-04T09:23:38.828Z,4.48
2023-03-04T09:26:26.531Z,4.69
2023-03-04T09:28:57.316Z,4.72
2023-03-04T09:31:26.599Z,4.41
2023-03-04T09:33:55.348Z,4.61
2023-03-04T09:36:22.694Z,4.45
2023-03-04T09:38:50.007Z,4.63
2023-03-04T09:41:35.208Z,4.58
2023-03-04T09:44:30.636Z,4.69
2023-03-04T09:47:02.410Z,5.22
2023-03-04T09:49:30.788Z,5.30
2023-03-04T09:52:34.980Z,5.21
2023-03-04T09:55:20.472Z,5.25
2023-03-04T09:58:21.556Z,4.91
2023-03-04T10:01:21.734Z,5.00
2023-03-04T10:03:59.120Z,4.89
2023-03-04T10:06:26.205Z,4.97
2023-03-04T10:09:16.870Z,5.14
2023-03-04T10:12:12.694Z,5.02
2023-03-04T10:14:51.939Z,5.25
2023-03-04T10:17:39.316Z,5.00
2023-03-04T10:20:31.614Z,5.20
2023-03-04T10:23:16.423Z,5.02
2023-03-04T10:25:53.778Z,5.02
2023-03-04T10:28:30.440Z,5.20
2023-03-04T10:31:22.340Z,5.10
2023-03-04T10:33:49.808Z,5.15
2023-03-04T10:36:38.742Z,5.47
2023-03-04T10:39:18.691Z,5.39
2023-03-04T10:42:04.692Z,5.43
2023-03-04T10:44:35.161Z,5.42
2023-03-04T10:47:03.254Z,5.29
2023-03-04T10:49:30.379Z,4.98
2023-03-04T10:52:19.718Z,5.03
2023-03-04T10:54:54.315Z,4.76
2023-03-04T10:57:35.146Z,4.50
2023-03-04T11:00:18.555Z,4.64
2023-03-04T11:02:47.574Z,4.55
2023-03-04T11:05:23.627Z,4.36
2023-03-04T11:07:57.558Z,4.40
2023-03-04T11:10:36.747Z,4.46
2023-03-04T11:13:18.786Z,4.45
2023-03-04T11:16:30.994Z,4.63
2023-03-04T11:19:12.415Z,4.51
2023-03-04T11:21:41.086Z,4.52
2023-03-04T11:24:29.109Z,4.53
2023-03-04T11:27:36.607Z,4.72
2023-03-04T11:30:31.741Z,4.80
2023-03-04T11:33:43.556Z,4.66
2023-03-04T11:36:41.001Z,4.59
2023-03-04T11:39:25.829Z,4.70
2023-03-04T11:42:03.332Z,4.88
2023-03-04T11:44:31.431Z,4.87
2023-03-04T11:47:19.412Z,4.63
2023-03-04T11:49:56.457Z,4.67
2023-03-04T11:53:00.465Z,4.69
2023-03-04T11:56:10.582Z,4.79
2023-03-04T11:59:01.688Z,4.73
2023-03-04T12:02:08.289Z,4.89
2023-03-04T12:04:56.243Z,4.91
2023-03-04T12:07:32.260Z,4.79
2023-03-04T12:10:30.300Z,4.82
2023-03-04T12:13:30.463Z,4.88
2023-03-04T12:16:21.523Z,5.04
2023-03-04T12:19:09.834Z,4.95
2023-03-04T12:22:09.214Z,5.00
2023-03-04T12:25:16.690Z,5.05
2023-03-04T12:28:08.749Z,5.19
2023-03-04T12:30:58.342Z,5.12
2023-03-04T12:33:34.251Z,5.17
2023-03-04T12:36:07.183Z,5.22
2023-03-04T12:39:00.126Z,5.47
2023-03-04T12:42:02.704Z,5.56
2023-03-04T12:44:37.002Z,5.29
2023-03-04T12:47:24.397Z,5.41
2023-03-04T12:50:22.286Z,5.48
2023-03-04T12:53:11.943Z,5.45
2023-03-04T12:55:43.514Z,5.56
2023-03-04T12:58:37.171Z,5.45
2023-03-04T13:01:15.914Z,5.17
2023-03-04T13:04:12.895Z,5.11
2023-03-04T13:07:15.847Z,5.27
2023-03-04T13:10:02.628Z,5.32
2023-03-04T13:12:56.013Z,5.49
2023-03-04T13:15:23.012Z,5.42
2023-03-04T13:18:28.771Z,5.91
2023-03-04T13:21:30.026Z,5.69
2023-03-04T13:23:58.159Z,5.43
2023-03-04T13:26:35.187Z,5.20
2023-03-04T13:29:14.195Z,5.33
2023-03-04T13:32:11.503Z,5.51
2023-03-04T13:34:51.830Z,5.51
2023-03-04T13:37:31.169Z,5.31
2023-03-04T13:40:34.210Z,5.65
2023-03-04T13:43:52.622Z,5.61
2023-03-04T13:46:19.531Z,5.47
2023-03-04T13:48:52.658Z,5.50
2023-03-04T13:51:45.015Z,5.55
2023-03-04T13:54:32.628Z,5.56
2023-03-04T13:57:18.509Z,5.48
2023-03-04T13:59:49.813Z,5.48
2023-03-04T14:02:22.766Z,5.40
2023-03-04T14:05:02.014Z,5.56
2023-03-04T14:07:36.535Z,5.77
2023-03-04T14:10:20.737Z,5.63
2023-03-04T14:12:56.870Z,5.63
2023-03-04T14:15:30.089Z,5.51
2023-03-04T14:17:59.933Z,5.47
2023-03-04T14:20:32.725Z,5.48
2023-03-04T14:23:23.149Z,5.74
2023-03-04T14:25:50.345Z,5.47
2023-03-04T14:28:20.589Z,5.68
2023-03-04T14:30:56.712Z,5.68
2023-03-04T14:33:27.979Z,5.50
2023-03-04T14:35:59.852Z,5.67
2023-03-04T14:38:41.597Z,5.82
2023-03-04T14:41:23.570Z,5.89
2023-03-04T14:44:09.320Z,5.89
2023-03-04T14:47:06.560Z,6.05
2023-03-04T14:49:37.070Z,5.87
2023-03-04T14:52:04.823Z,6.09
2023-03-04T14:54:37.703Z,6.08
2023-03-04T14:57:34.889Z,5.63
2023-03-04T15:00:21.583Z,5.60
2023-03-04T15:02:58.764Z,5.62
2023-03-04T15:05:30.027Z,5.69
2023-03-04T15:08:07.186Z,5.82
2023-03-04T15:10:38.031Z,6.03
2023-03-04T15:13:08.863Z,5.85
2023-03-04T15:15:46.771Z,5.95
2023-03-04T15:18:23.397Z,5.55
2023-03-04T15:21:03.272Z,5.48
2023-03-04T15:23:33.594Z,5.47
2023-03-04T15:26:04.262Z,5.63
2023-03-04T15:28:37.847Z,5.89
2023-03-04T15:31:06.406Z,5.90
2023-03-04T15:33:34.086Z,5.82
2023-03-04T15:36:03.149Z,5.92
2023-03-04T15:38:30.474Z,5.72
2023-03-04T15:40:59.578Z,5.61
2023-03-04T15:43:27.028Z,5.75
2023-03-04T15:45:54.218Z,5.90
2023-03-04T15:48:21.611Z,6.13
2023-03-04T15:50:52.542Z,6.27
2023-03-04T15:53:40.902Z,6.42
2023-03-04T15:56:17.597Z,6.38
2023-03-04T15:58:47.624Z,6.17
2023-03-04T16:01:17.287Z,6.26
2023-03-04T16:03:44.338Z,6.24
2023-03-04T16:06:14.872Z,6.20
2023-03-04T16:08:42.794Z,6.42
2023-03-04T16:11:21.258Z,6.42
2023-03-04T16:13:48.586Z,6.36
2023-03-04T16:16:15.915Z,6.32
2023-03-04T16:18:43.752Z,6.25
2023-03-04T16:21:16.337Z,6.23
2023-03-04T16:23:47.396Z,6.34
2023-03-04T16:26:28.384Z,6.20
2023-03-04T16:28:55.309Z,6.19
2023-03-04T16:31:23.068Z,6.17
2023-03-04T16:33:51.244Z,6.16
2023-03-04T16:36:27.365Z,6.27
2023-03-04T16:39:02.708Z,6.27
2023-03-04T16:41:33.165Z,5.94
2023-03-04T16:44:01.129Z,6.14
2023-03-04T16:46:29.948Z,6.00
2023-03-04T16:48:56.926Z,6.03
2023-03-04T16:51:24.108Z,5.93
2023-03-04T16:54:00.048Z,5.86
2023-03-04T16:56:27.609Z,5.83
2023-03-04T16:58:54.700Z,6.00
2023-03-04T17:01:28.871Z,6.03
2023-03-04T17:03:56.881Z,6.01
2023-03-04T17:06:24.474Z,5.99
2023-03-04T17:08:51.729Z,6.06
2023-03-04T17:11:23.473Z,6.01
2023-03-04T17:13:51.502Z,6.10
2023-03-04T17:16:18.822Z,5.91
2023-03-04T17:18:46.275Z,5.84
2023-03-04T17:21:20.641Z,6.02
2023-03-04T17:23:47.892Z,5.99
2023-03-04T17:26:15.970Z,5.84
2023-03-04T17:28:43.217Z,5.76
2023-03-04T17:31:17.078Z,5.73
2023-03-04T17:33:45.124Z,5.66
2023-03-04T17:36:14.223Z,5.80
2023-03-04T17:38:41.827Z,5.87
2023-03-04T17:41:17.540Z,5.91
2023-03-04T17:43:47.244Z,5.99
2023-03-04T17:46:17.020Z,5.80
2023-03-04T17:48:44.362Z,5.86
2023-03-04T17:51:12.258Z,5.65
2023-03-04T17:53:39.927Z,5.82
2023-03-04T17:56:09.172Z,5.58
2023-03-04T17:58:37.219Z,5.57
2023-03-04T18:01:17.614Z,5.39
2023-03-04T18:03:45.129Z,5.40
2023-03-04T18:06:12.642Z,5.32
2023-03-04T18:08:39.558Z,5.39
2023-03-04T18:11:06.604Z,5.72
2023-03-04T18:13:33.491Z,5.79
2023-03-04T18:16:00.466Z,5.51
2023-03-04T18:18:27.541Z,5.42
2023-03-04T18:21:01.419Z,5.38
2023-03-04T18:23:29.091Z,5.37
2023-03-04T18:25:56.217Z,5.51
2023-03-04T18:28:23.551Z,5.47
2023-03-04T18:30:54.503Z,5.48
2023-03-04T18:33:21.972Z,5.48
2023-03-04T18:35:49.031Z,5.51
2023-03-04T18:38:16.468Z,5.46
2023-03-04T18:40:44.242Z,5.39
2023-03-04T18:43:11.367Z,5.55
2023-03-04T18:45:38.329Z,5.45
2023-03-04T18:48:05.743Z,5.27
2023-03-04T18:50:32.842Z,5.33
2023-03-04T18:52:59.849Z,5.35
2023-03-04T18:55:26.852Z,5.36
2023-03-04T18:57:58.012Z,5.42
2023-03-04T19:00:25.769Z,5.38
2023-03-04T19:03:01.848Z,5.36
2023-03-04T19:05:32.514Z,5.33
2023-03-04T19:08:00.031Z,5.34
2023-03-04T19:10:27.310Z,5.39
2023-03-04T19:12:54.285Z,5.37
2023-03-04T19:15:21.265Z,5.35
2023-03-04T19:17:48.380Z,5.46
2023-03-04T19:20:16.660Z,5.32
2023-03-04T19:22:44.449Z,5.42
2023-03-04T19:25:11.945Z,5.51
2023-03-04T19:27:39.004Z,5.45
2023-03-04T19:30:07.596Z,5.46
2023-03-04T19:32:34.571Z,5.18
2023-03-04T19:35:01.871Z,5.51
2023-03-04T19:37:28.894Z,5.43
2023-03-04T19:39:56.060Z,5.41
2023-03-04T19:42:24.217Z,5.29
2023-03-04T19:44:51.543Z,5.10
2023-03-04T19:47:18.540Z,5.20
2023-03-04T19:49:45.683Z,5.42
2023-03-04T19:52:12.612Z,5.11
2023-03-04T19:54:39.832Z,5.11
2023-03-04T19:57:06.856Z,5.32
2023-03-04T19:59:35.243Z,5.18
2023-03-04T20:02:02.909Z,5.32
2023-03-04T20:04:29.971Z,5.15
2023-03-04T20:06:56.986Z,5.25
2023-03-04T20:09:23.916Z,5.15
2023-03-04T20:11:58.134Z,5.21
2023-03-04T20:14:27.393Z,5.14
2023-03-04T20:16:58.710Z,5.27
2023-03-04T20:19:25.690Z,5.36
2023-03-04T20:21:52.649Z,5.41
2023-03-04T20:24:20.041Z,5.51
2023-03-04T20:26:46.909Z,5.16
2023-03-04T20:29:13.787Z,5.12
2023-03-04T20:31:41.076Z,5.29
2023-03-04T20:34:08.740Z,5.41
2023-03-04T20:36:36.144Z,5.06
2023-03-04T20:39:08.289Z,5.04
2023-03-04T20:41:42.321Z,5.17
2023-03-04T20:44:09.284Z,5.17
2023-03-04T20:46:46.118Z,5.18
2023-03-04T20:49:26.954Z,5.14
2023-03-04T20:52:06.163Z,5.13
2023-03-04T20:54:38.497Z,5.19
2023-03-04T20:57:10.638Z,5.07
2023-03-04T20:59:39.456Z,5.11
2023-03-04T21:02:10.995Z,5.14
2023-03-04T21:04:38.005Z,5.15
2023-03-04T21:07:04.938Z,5.00
2023-03-04T21:09:31.934Z,5.10
2023-03-04T21:12:00.818Z,5.01
2023-03-04T21:14:32.364Z,5.24
2023-03-04T21:17:02.989Z,5.04
2023-03-04T21:19:36.142Z,4.95
2023-03-04T21:22:04.074Z,5.01
2023-03-04T21:24:34.397Z,5.11
2023-03-04T21:27:01.824Z,5.35
2023-03-04T21:29:28.814Z,5.18
2023-03-04T21:32:16.899Z,5.01
2023-03-04T21:34:51.788Z,4.98
2023-03-04T21:37:23.888Z,5.29
2023-03-04T21:39:51.174Z,5.28
2023-03-04T21:42:18.493Z,5.15
2023-03-04T21:44:49.080Z,5.21
2023-03-04T21:47:17.714Z,4.94
2023-03-04T21:49:44.724Z,4.82
2023-03-04T21:52:13.019Z,4.80
2023-03-04T21:54:39.966Z,4.86
2023-03-04T21:57:06.938Z,5.16
2023-03-04T21:59:34.006Z,4.97
2023-03-04T22:02:02.223Z,5.14
2023-03-04T22:04:29.229Z,5.00
2023-03-04T22:06:56.162Z,4.98
2023-03-04T22:09:23.106Z,5.16
2023-03-04T22:11:50.138Z,5.02
2023-03-04T22:14:17.102Z,4.95
2023-03-04T22:16:59.285Z,5.10
2023-03-04T22:19:30.928Z,5.05
2023-03-04T22:21:59.135Z,5.05
2023-03-04T22:24:26.362Z,4.98
2023-03-04T22:26:56.764Z,4.87
2023-03-04T22:29:23.705Z,4.86
2023-03-04T22:31:50.616Z,4.81
2023-03-04T22:34:18.767Z,5.00
2023-03-04T22:36:47.208Z,4.99
2023-03-04T22:39:20.764Z,4.82
2023-03-04T22:41:48.132Z,4.90
2023-03-04T22:44:15.217Z,4.86
2023-03-04T22:46:42.747Z,4.79
2023-03-04T22:49:12.365Z,4.84
2023-03-04T22:51:44.391Z,4.89
2023-03-04T22:54:17.043Z,5.03
2023-03-04T22:56:44.893Z,4.81
2023-03-04T22:59:12.150Z,5.00
2023-03-04T23:01:39.134Z,4.93
2023-03-04T23:04:06.034Z,4.87
2023-03-04T23:06:33.254Z,5.04
2023-03-04T23:09:00.648Z,4.76
2023-03-04T23:11:35.356Z,4.77
2023-03-04T23:14:06.338Z,4.74
2023-03-04T23:16:39.110Z,5.10
2023-03-04T23:19:07.187Z,4.86
2023-03-04T23:21:35.577Z,4.73
2023-03-04T23:24:04.024Z,4.78
2023-03-04T23:26:38.882Z,5.04
2023-03-04T23:29:11.399Z,4.88
2023-03-04T23:31:38.536Z,4.83
2023-03-04T23:34:06.926Z,4.65
2023-03-04T23:36:37.043Z,4.58
2023-03-04T23:39:06.393Z,4.67
2023-03-04T23:41:35.059Z,4.86
2023-03-04T23:44:02.886Z,4.76
2023-03-04T23:46:30.055Z,4.64
2023-03-04T23:48:57.683Z,4.79
2023-03-04T23:51:28.418Z,4.72
2023-03-04T23:53:56.428Z,4.57
2023-03-04T23:56:30.252Z,4.56
2023-03-04T23:58:58.648Z,4.65
